Clara — V2CC9 — position and weather

sailwx.info

Track history (hours):
 
Tides and Currents Weather Stations Pressure Air Temp Water Temp Dewpoint Dewpoint Depression Visibility Wind Speed Wind Dir Waves Ship Positions

Clara

Last reported at 2015-Jan-29 19:34 UTC. Time now 2015-Jan-29 20:23 UTC.
Position N 54°00' E 007°33'.

Length 108 m; draft 6.6 m.

Type: Cargo ship. MMSI: 304983000.

Date/timePositionNaut miles runAvg speedWind from/ knotsBaromVisibWave heightAir tempDewpointWater temp
2015-Jan-29 19:34N 54°00' E 007°33'9 8.9
2015-Jan-29 18:33N 54°01' E 007°48'8 7.9
2015-Jan-29 17:33N 54°01' E 008°02'7 7.4
2015-Jan-29 16:33N 54°01' E 008°14'8 8.2
2015-Jan-29 15:34N 53°59' E 008°28'10 9.5
2015-Jan-29 14:33N 53°54' E 008°42'1211.7
2015-Jan-29 13:33N 53°52' E 009°01'5 4.8
2015-Jan-29 12:33N 53°54' E 009°09'1 0.8
2015-Jan-29 11:33N 53°54' E 009°10'1 0.7
2015-Jan-29 10:33N 53°55' E 009°11'8 7.9
2015-Jan-29 09:33N 54°01' E 009°18'8 6.7
2015-Jan-29 08:20N 54°09' E 009°22'15 5.4
2015-Jan-29 05:33N 54°18' E 009°43'7 7.1
2015-Jan-29 04:33N 54°21' E 009°54'6 6.4
2015-Jan-29 03:33N 54°22' E 010°05'2 1.8
2015-Jan-29 02:33N 54°22' E 010°08'0 0.0
2015-Jan-29 01:33N 54°22' E 010°08'1 0.6
2015-Jan-29 00:33N 54°22' E 010°09'1 1.2
2015-Jan-28 23:33N 54°22' E 010°11'0 0.5
2015-Jan-28 22:33N 54°23' E 010°11'4 4.4
2015-Jan-28 21:33N 54°27' E 010°14'6 6.1
2015-Jan-28 20:33N 54°31' E 010°21'9 9.3
2015-Jan-28 19:33N 54°35' E 010°36'10 9.2
2015-Jan-28 18:29N 54°36' E 010°54'910.0
2015-Jan-28 17:33N 54°36' E 011°09'1111.1
2015-Jan-28 16:33N 54°32' E 011°27'1010.2
2015-Jan-28 15:33N 54°28' E 011°43'10 9.6
2015-Jan-28 14:33N 54°27' E 011°59'8 8.4
2015-Jan-28 13:33N 54°31' E 012°12'10 9.7
2015-Jan-28 12:33N 54°36' E 012°26'1010.0
2015-Jan-28 11:33N 54°40' E 012°42'1010.0
2015-Jan-28 10:33N 54°43' E 012°58'1010.0
2015-Jan-28 09:33N 54°44' E 013°16'10 9.7
2015-Jan-28 08:33N 54°43' E 013°32'1010.4
2015-Jan-28 07:33N 54°35' E 013°44'1110.7
2015-Jan-28 06:33N 54°26' E 013°53'1010.4
2015-Jan-28 05:33N 54°18' E 014°04'10 9.6
2015-Jan-28 04:33N 54°10' E 014°13'1010.5
2015-Jan-28 03:33N 53°60' E 014°16'8 7.5
2015-Jan-28 02:33N 53°52' E 014°17'8 8.0
2015-Jan-28 01:33N 53°46' E 014°24'10 9.8
2015-Jan-28 00:33N 53°38' E 014°35'  
2015-Jan-22 09:12N 53°24' E 014°37'0 0.0
2015-Jan-22 08:33N 53°24' E 014°36'1 1.3
2015-Jan-22 07:33N 53°25' E 014°35'0 0.0
2015-Jan-22 06:31N 53°25' E 014°35'0 0.0
2015-Jan-22 05:31N 53°25' E 014°35'0 0.0
2015-Jan-22 04:33N 53°25' E 014°35'0 0.0
2015-Jan-22 03:33N 53°25' E 014°35'0 0.0
2015-Jan-22 02:30N 53°25' E 014°35'0 0.0
2015-Jan-22 01:33N 53°25' E 014°35'0 0.0
2015-Jan-22 00:33N 53°25' E 014°35'0 0.0
2015-Jan-21 23:33N 53°25' E 014°35'0 0.0
2015-Jan-21 22:48N 53°25' E 014°35'0 0.0
2015-Jan-21 22:45N 53°25' E 014°35'0 0.0
2015-Jan-21 22:33N 53°25' E 014°35'0 0.0
2015-Jan-21 21:33N 53°25' E 014°35'0 0.0
2015-Jan-21 20:33N 53°25' E 014°35'0 0.0
2015-Jan-21 19:33N 53°25' E 014°35'0 0.0
2015-Jan-21 18:33N 53°25' E 014°35'0 0.0
2015-Jan-21 17:33N 53°25' E 014°35'0 0.0
2015-Jan-21 16:33N 53°25' E 014°35'0 0.0
2015-Jan-21 15:33N 53°25' E 014°35'0 0.0
2015-Jan-21 14:33N 53°25' E 014°35'0 0.0
2015-Jan-21 13:33N 53°25' E 014°35'0 0.0
2015-Jan-21 12:33N 53°25' E 014°35'0 0.0
2015-Jan-21 11:33N 53°25' E 014°35'0 0.0
2015-Jan-21 10:33N 53°25' E 014°35'0 0.0
2015-Jan-21 09:33N 53°25' E 014°35'0 0.0
2015-Jan-21 08:33N 53°25' E 014°35'0 0.0
2015-Jan-21 07:33N 53°25' E 014°35'0 0.0
2015-Jan-21 06:33N 53°25' E 014°35'0 0.0
2015-Jan-21 05:33N 53°25' E 014°35'0 0.0
2015-Jan-21 04:33N 53°25' E 014°35'0 0.0
2015-Jan-21 03:33N 53°25' E 014°35'0 0.0
2015-Jan-21 02:33N 53°25' E 014°35'0 0.0
2015-Jan-21 01:33N 53°25' E 014°35'0 0.0
2015-Jan-21 00:33N 53°25' E 014°35'0 0.0
2015-Jan-20 23:33N 53°25' E 014°35'0 0.0
2015-Jan-20 22:33N 53°25' E 014°35'0 0.0
2015-Jan-20 21:33N 53°25' E 014°35'0 0.0
2015-Jan-20 20:33N 53°25' E 014°35'0 0.0
2015-Jan-20 19:33N 53°25' E 014°35'0 0.0
2015-Jan-20 18:33N 53°25' E 014°35'0 0.0
2015-Jan-20 17:33N 53°25' E 014°35'0 0.0
2015-Jan-20 16:33N 53°25' E 014°35'0 0.0
2015-Jan-20 15:33N 53°25' E 014°35'0 0.0
2015-Jan-20 14:33N 53°25' E 014°35'0 0.0
2015-Jan-20 13:33N 53°25' E 014°35'0 0.0
2015-Jan-20 12:33N 53°25' E 014°35'0 0.0
2015-Jan-20 11:33N 53°25' E 014°35'0 0.0
2015-Jan-20 10:33N 53°25' E 014°35'0 0.0
2015-Jan-20 09:33N 53°25' E 014°35'0 0.0
2015-Jan-20 08:33N 53°25' E 014°35'0 0.0
2015-Jan-20 07:33N 53°25' E 014°35'0 0.0
2015-Jan-20 06:33N 53°25' E 014°35'0 0.1
2015-Jan-20 05:30N 53°25' E 014°35'0 0.1
2015-Jan-20 04:31N 53°25' E 014°35'0 0.0
2015-Jan-20 03:32N 53°25' E 014°35'0 0.0
2015-Jan-20 02:25N 53°25' E 014°35'0 0.0
2015-Jan-20 01:19N 53°25' E 014°35'0 0.0
2015-Jan-20 00:31N 53°25' E 014°35'0 0.0
2015-Jan-19 23:31N 53°25' E 014°35'0 0.0
2015-Jan-19 22:31N 53°25' E 014°35'0 0.0
2015-Jan-19 21:31N 53°25' E 014°35'0 0.0
2015-Jan-19 20:31N 53°25' E 014°35'  
Track history (hours):
 
Tides and Currents Weather Stations Pressure Air Temp Water Temp Dewpoint Dewpoint Depression Visibility Wind Speed Wind Dir Waves Ship Positions

Clara

Last reported at 2015-Jan-29 19:34 UTC. Time now 2015-Jan-29 20:23 UTC.
Position N 54°00' E 007°33'.

Length 108 m; draft 6.6 m.

Type: Cargo ship. MMSI: 304983000.

Date/timePositionNaut miles runAvg speedWind from/ knotsBaromVisibWave heightAir tempDewpointWater temp
2015-Jan-29 19:34N 54°00' E 007°33'9 8.9
2015-Jan-29 18:33N 54°01' E 007°48'8 7.9
2015-Jan-29 17:33N 54°01' E 008°02'7 7.4
2015-Jan-29 16:33N 54°01' E 008°14'8 8.2
2015-Jan-29 15:34N 53°59' E 008°28'10 9.5
2015-Jan-29 14:33N 53°54' E 008°42'1211.7
2015-Jan-29 13:33N 53°52' E 009°01'5 4.8
2015-Jan-29 12:33N 53°54' E 009°09'1 0.8
2015-Jan-29 11:33N 53°54' E 009°10'1 0.7
2015-Jan-29 10:33N 53°55' E 009°11'8 7.9
2015-Jan-29 09:33N 54°01' E 009°18'8 6.7
2015-Jan-29 08:20N 54°09' E 009°22'15 5.4
2015-Jan-29 05:33N 54°18' E 009°43'7 7.1
2015-Jan-29 04:33N 54°21' E 009°54'6 6.4
2015-Jan-29 03:33N 54°22' E 010°05'2 1.8
2015-Jan-29 02:33N 54°22' E 010°08'0 0.0
2015-Jan-29 01:33N 54°22' E 010°08'1 0.6
2015-Jan-29 00:33N 54°22' E 010°09'1 1.2
2015-Jan-28 23:33N 54°22' E 010°11'0 0.5
2015-Jan-28 22:33N 54°23' E 010°11'4 4.4
2015-Jan-28 21:33N 54°27' E 010°14'6 6.1
2015-Jan-28 20:33N 54°31' E 010°21'9 9.3
2015-Jan-28 19:33N 54°35' E 010°36'10 9.2
2015-Jan-28 18:29N 54°36' E 010°54'910.0
2015-Jan-28 17:33N 54°36' E 011°09'1111.1
2015-Jan-28 16:33N 54°32' E 011°27'1010.2
2015-Jan-28 15:33N 54°28' E 011°43'10 9.6
2015-Jan-28 14:33N 54°27' E 011°59'8 8.4
2015-Jan-28 13:33N 54°31' E 012°12'10 9.7
2015-Jan-28 12:33N 54°36' E 012°26'1010.0
2015-Jan-28 11:33N 54°40' E 012°42'1010.0
2015-Jan-28 10:33N 54°43' E 012°58'1010.0
2015-Jan-28 09:33N 54°44' E 013°16'10 9.7
2015-Jan-28 08:33N 54°43' E 013°32'1010.4
2015-Jan-28 07:33N 54°35' E 013°44'1110.7
2015-Jan-28 06:33N 54°26' E 013°53'1010.4
2015-Jan-28 05:33N 54°18' E 014°04'10 9.6
2015-Jan-28 04:33N 54°10' E 014°13'1010.5
2015-Jan-28 03:33N 53°60' E 014°16'8 7.5
2015-Jan-28 02:33N 53°52' E 014°17'8 8.0
2015-Jan-28 01:33N 53°46' E 014°24'10 9.8
2015-Jan-28 00:33N 53°38' E 014°35'  
2015-Jan-22 09:12N 53°24' E 014°37'0 0.0
2015-Jan-22 08:33N 53°24' E 014°36'1 1.3
2015-Jan-22 07:33N 53°25' E 014°35'0 0.0
2015-Jan-22 06:31N 53°25' E 014°35'0 0.0
2015-Jan-22 05:31N 53°25' E 014°35'0 0.0
2015-Jan-22 04:33N 53°25' E 014°35'0 0.0
2015-Jan-22 03:33N 53°25' E 014°35'0 0.0
2015-Jan-22 02:30N 53°25' E 014°35'0 0.0
2015-Jan-22 01:33N 53°25' E 014°35'0 0.0
2015-Jan-22 00:33N 53°25' E 014°35'0 0.0
2015-Jan-21 23:33N 53°25' E 014°35'0 0.0
2015-Jan-21 22:48N 53°25' E 014°35'0 0.0
2015-Jan-21 22:45N 53°25' E 014°35'0 0.0
2015-Jan-21 22:33N 53°25' E 014°35'0 0.0
2015-Jan-21 21:33N 53°25' E 014°35'0 0.0
2015-Jan-21 20:33N 53°25' E 014°35'0 0.0
2015-Jan-21 19:33N 53°25' E 014°35'0 0.0
2015-Jan-21 18:33N 53°25' E 014°35'0 0.0
2015-Jan-21 17:33N 53°25' E 014°35'0 0.0
2015-Jan-21 16:33N 53°25' E 014°35'0 0.0
2015-Jan-21 15:33N 53°25' E 014°35'0 0.0
2015-Jan-21 14:33N 53°25' E 014°35'0 0.0
2015-Jan-21 13:33N 53°25' E 014°35'0 0.0
2015-Jan-21 12:33N 53°25' E 014°35'0 0.0
2015-Jan-21 11:33N 53°25' E 014°35'0 0.0
2015-Jan-21 10:33N 53°25' E 014°35'0 0.0
2015-Jan-21 09:33N 53°25' E 014°35'0 0.0
2015-Jan-21 08:33N 53°25' E 014°35'0 0.0
2015-Jan-21 07:33N 53°25' E 014°35'0 0.0
2015-Jan-21 06:33N 53°25' E 014°35'0 0.0
2015-Jan-21 05:33N 53°25' E 014°35'0 0.0
2015-Jan-21 04:33N 53°25' E 014°35'0 0.0
2015-Jan-21 03:33N 53°25' E 014°35'0 0.0
2015-Jan-21 02:33N 53°25' E 014°35'0 0.0
2015-Jan-21 01:33N 53°25' E 014°35'0 0.0
2015-Jan-21 00:33N 53°25' E 014°35'0 0.0
2015-Jan-20 23:33N 53°25' E 014°35'0 0.0
2015-Jan-20 22:33N 53°25' E 014°35'0 0.0
2015-Jan-20 21:33N 53°25' E 014°35'0 0.0
2015-Jan-20 20:33N 53°25' E 014°35'0 0.0
2015-Jan-20 19:33N 53°25' E 014°35'0 0.0
2015-Jan-20 18:33N 53°25' E 014°35'0 0.0
2015-Jan-20 17:33N 53°25' E 014°35'0 0.0
2015-Jan-20 16:33N 53°25' E 014°35'0 0.0
2015-Jan-20 15:33N 53°25' E 014°35'0 0.0
2015-Jan-20 14:33N 53°25' E 014°35'0 0.0
2015-Jan-20 13:33N 53°25' E 014°35'0 0.0
2015-Jan-20 12:33N 53°25' E 014°35'0 0.0
2015-Jan-20 11:33N 53°25' E 014°35'0 0.0
2015-Jan-20 10:33N 53°25' E 014°35'0 0.0
2015-Jan-20 09:33N 53°25' E 014°35'0 0.0
2015-Jan-20 08:33N 53°25' E 014°35'0 0.0
2015-Jan-20 07:33N 53°25' E 014°35'0 0.0
2015-Jan-20 06:33N 53°25' E 014°35'0 0.1
2015-Jan-20 05:30N 53°25' E 014°35'0 0.1
2015-Jan-20 04:31N 53°25' E 014°35'0 0.0
2015-Jan-20 03:32N 53°25' E 014°35'0 0.0
2015-Jan-20 02:25N 53°25' E 014°35'0 0.0
2015-Jan-20 01:19N 53°25' E 014°35'0 0.0
2015-Jan-20 00:31N 53°25' E 014°35'0 0.0
2015-Jan-19 23:31N 53°25' E 014°35'0 0.0
2015-Jan-19 22:31N 53°25' E 014°35'0 0.0
2015-Jan-19 21:31N 53°25' E 014°35'0 0.0
2015-Jan-19 20:31N 53°25' E 014°35'  

Dump ship's entire track history